sensor_id;sensor_type;location;lat;lon;timestamp;temperature;humidity
49765;DHT22;35657;51.204;-4.130;2022-11-23T00:01:51;9.30;99.90
49765;DHT22;35657;51.204;-4.130;2022-11-23T00:04:17;9.30;99.90
49765;DHT22;35657;51.204;-4.130;2022-11-23T00:06:45;9.30;99.90
49765;DHT22;35657;51.204;-4.130;2022-11-23T00:09:11;9.20;99.90
49765;DHT22;35657;51.204;-4.130;2022-11-23T00:11:37;9.30;99.90
49765;DHT22;35657;51.204;-4.130;2022-11-23T00:14:03;9.30;99.90
49765;DHT22;35657;51.204;-4.130;2022-11-23T00:16:29;9.20;99.90
49765;DHT22;35657;51.204;-4.130;2022-11-23T00:18:57;9.20;99.90
49765;DHT22;35657;51.204;-4.130;2022-11-23T00:21:24;9.20;99.90
49765;DHT22;35657;51.204;-4.130;2022-11-23T00:23:50;9.20;99.90
49765;DHT22;35657;51.204;-4.130;2022-11-23T00:26:17;9.20;99.90
49765;DHT22;35657;51.204;-4.130;2022-11-23T00:28:44;9.20;99.90
49765;DHT22;35657;51.204;-4.130;2022-11-23T00:31:12;9.20;99.90
49765;DHT22;35657;51.204;-4.130;2022-11-23T00:33:39;9.20;99.90
49765;DHT22;35657;51.204;-4.130;2022-11-23T00:36:13;9.20;99.90
49765;DHT22;35657;51.204;-4.130;2022-11-23T00:38:40;9.20;99.90
49765;DHT22;35657;51.204;-4.130;2022-11-23T00:41:11;9.20;99.90
49765;DHT22;35657;51.204;-4.130;2022-11-23T00:43:37;9.20;99.90
49765;DHT22;35657;51.204;-4.130;2022-11-23T00:46:12;9.20;99.90
49765;DHT22;35657;51.204;-4.130;2022-11-23T00:48:38;9.20;99.90
49765;DHT22;35657;51.204;-4.130;2022-11-23T00:51:05;9.20;99.90
49765;DHT22;35657;51.204;-4.130;2022-11-23T00:53:32;9.20;99.90
49765;DHT22;35657;51.204;-4.130;2022-11-23T00:55:57;9.20;99.90
49765;DHT22;35657;51.204;-4.130;2022-11-23T00:58:24;9.20;99.90
49765;DHT22;35657;51.204;-4.130;2022-11-23T01:00:50;9.20;99.90
49765;DHT22;35657;51.204;-4.130;2022-11-23T01:03:16;9.20;99.90
49765;DHT22;35657;51.204;-4.130;2022-11-23T01:05:41;9.20;99.90
49765;DHT22;35657;51.204;-4.130;2022-11-23T01:08:07;9.20;99.90
49765;DHT22;35657;51.204;-4.130;2022-11-23T01:10:33;9.20;99.90
49765;DHT22;35657;51.204;-4.130;2022-11-23T01:12:59;9.20;99.90
49765;DHT22;35657;51.204;-4.130;2022-11-23T01:15:26;9.20;99.90
49765;DHT22;35657;51.204;-4.130;2022-11-23T01:17:51;9.20;99.90
49765;DHT22;35657;51.204;-4.130;2022-11-23T01:20:17;9.20;99.90
49765;DHT22;35657;51.204;-4.130;2022-11-23T01:22:43;9.20;99.90
49765;DHT22;35657;51.204;-4.130;2022-11-23T01:25:09;9.30;99.90
49765;DHT22;35657;51.204;-4.130;2022-11-23T01:27:34;9.30;99.90
49765;DHT22;35657;51.204;-4.130;2022-11-23T01:30:01;9.30;99.90
49765;DHT22;35657;51.204;-4.130;2022-11-23T01:32:29;9.30;99.90
49765;DHT22;35657;51.204;-4.130;2022-11-23T01:34:54;9.30;99.90
49765;DHT22;35657;51.204;-4.130;2022-11-23T01:37:20;9.40;99.90
49765;DHT22;35657;51.204;-4.130;2022-11-23T01:39:47;9.40;99.90
49765;DHT22;35657;51.204;-4.130;2022-11-23T01:42:12;9.40;99.90
49765;DHT22;35657;51.204;-4.130;2022-11-23T01:44:43;9.50;99.90
49765;DHT22;35657;51.204;-4.130;2022-11-23T01:47:09;9.50;99.90
49765;DHT22;35657;51.204;-4.130;2022-11-23T01:49:44;9.50;99.90
49765;DHT22;35657;51.204;-4.130;2022-11-23T01:52:16;9.60;99.90
49765;DHT22;35657;51.204;-4.130;2022-11-23T01:54:47;9.60;99.90
49765;DHT22;35657;51.204;-4.130;2022-11-23T01:57:23;9.60;99.90
49765;DHT22;35657;51.204;-4.130;2022-11-23T01:59:50;9.60;99.90
49765;DHT22;35657;51.204;-4.130;2022-11-23T02:02:17;9.60;99.90
49765;DHT22;35657;51.204;-4.130;2022-11-23T02:04:46;9.60;99.90
49765;DHT22;35657;51.204;-4.130;2022-11-23T02:07:13;9.60;99.90
49765;DHT22;35657;51.204;-4.130;2022-11-23T02:09:40;9.50;99.90
49765;DHT22;35657;51.204;-4.130;2022-11-23T02:12:10;9.50;99.90
49765;DHT22;35657;51.204;-4.130;2022-11-23T02:14:36;9.50;99.90
49765;DHT22;35657;51.204;-4.130;2022-11-23T02:17:03;9.40;99.90
49765;DHT22;35657;51.204;-4.130;2022-11-23T02:22:00;9.40;99.90
49765;DHT22;35657;51.204;-4.130;2022-11-23T02:24:31;9.40;99.90
49765;DHT22;35657;51.204;-4.130;2022-11-23T02:26:59;9.40;99.90
49765;DHT22;35657;51.204;-4.130;2022-11-23T02:29:27;9.50;99.90
49765;DHT22;35657;51.204;-4.130;2022-11-23T02:31:54;9.50;99.90
49765;DHT22;35657;51.204;-4.130;2022-11-23T02:34:20;9.50;99.90
49765;DHT22;35657;51.204;-4.130;2022-11-23T02:36:47;9.50;99.90
49765;DHT22;35657;51.204;-4.130;2022-11-23T02:41:51;9.50;99.90
49765;DHT22;35657;51.204;-4.130;2022-11-23T02:46:52;9.60;99.90
49765;DHT22;35657;51.204;-4.130;2022-11-23T02:49:18;9.70;99.90
49765;DHT22;35657;51.204;-4.130;2022-11-23T02:51:44;9.70;99.90
49765;DHT22;35657;51.204;-4.130;2022-11-23T02:54:10;9.60;99.90
49765;DHT22;35657;51.204;-4.130;2022-11-23T02:56:36;9.60;99.90
49765;DHT22;35657;51.204;-4.130;2022-11-23T02:59:01;9.60;99.90
49765;DHT22;35657;51.204;-4.130;2022-11-23T03:01:29;9.60;99.90
49765;DHT22;35657;51.204;-4.130;2022-11-23T03:03:54;9.60;99.90
49765;DHT22;35657;51.204;-4.130;2022-11-23T03:06:20;9.60;99.90
49765;DHT22;35657;51.204;-4.130;2022-11-23T03:08:46;9.60;99.90
49765;DHT22;35657;51.204;-4.130;2022-11-23T03:11:11;9.60;99.90
49765;DHT22;35657;51.204;-4.130;2022-11-23T03:13:37;9.60;99.90
49765;DHT22;35657;51.204;-4.130;2022-11-23T03:16:03;9.70;99.90
49765;DHT22;35657;51.204;-4.130;2022-11-23T03:18:29;9.70;99.90
49765;DHT22;35657;51.204;-4.130;2022-11-23T03:20:54;9.70;99.90
49765;DHT22;35657;51.204;-4.130;2022-11-23T03:23:20;9.70;99.90
49765;DHT22;35657;51.204;-4.130;2022-11-23T03:25:57;9.70;99.90
49765;DHT22;35657;51.204;-4.130;2022-11-23T03:28:23;9.80;99.90
49765;DHT22;35657;51.204;-4.130;2022-11-23T03:30:49;9.90;99.90
49765;DHT22;35657;51.204;-4.130;2022-11-23T03:33:15;9.90;99.90
49765;DHT22;35657;51.204;-4.130;2022-11-23T03:35:41;10.00;99.90
49765;DHT22;35657;51.204;-4.130;2022-11-23T03:38:07;9.90;99.90
49765;DHT22;35657;51.204;-4.130;2022-11-23T03:40:33;9.90;99.90
49765;DHT22;35657;51.204;-4.130;2022-11-23T03:42:58;9.80;99.90
49765;DHT22;35657;51.204;-4.130;2022-11-23T03:45:24;9.80;99.90
49765;DHT22;35657;51.204;-4.130;2022-11-23T03:47:50;9.80;99.90
49765;DHT22;35657;51.204;-4.130;2022-11-23T03:50:16;9.80;99.90
49765;DHT22;35657;51.204;-4.130;2022-11-23T03:52:41;9.80;99.90
49765;DHT22;35657;51.204;-4.130;2022-11-23T03:55:07;9.80;99.90
49765;DHT22;35657;51.204;-4.130;2022-11-23T03:57:33;9.80;99.90
49765;DHT22;35657;51.204;-4.130;2022-11-23T03:59:59;9.80;99.90
49765;DHT22;35657;51.204;-4.130;2022-11-23T04:02:25;9.80;99.90
49765;DHT22;35657;51.204;-4.130;2022-11-23T04:04:51;9.90;99.90
49765;DHT22;35657;51.204;-4.130;2022-11-23T04:07:16;9.80;99.90
49765;DHT22;35657;51.204;-4.130;2022-11-23T04:09:42;9.90;99.90
49765;DHT22;35657;51.204;-4.130;2022-11-23T04:12:10;10.00;99.90
49765;DHT22;35657;51.204;-4.130;2022-11-23T04:14:36;10.00;99.90
49765;DHT22;35657;51.204;-4.130;2022-11-23T04:17:02;10.10;99.90
49765;DHT22;35657;51.204;-4.130;2022-11-23T04:19:28;10.20;99.90
49765;DHT22;35657;51.204;-4.130;2022-11-23T04:21:54;10.10;99.90
49765;DHT22;35657;51.204;-4.130;2022-11-23T04:24:20;10.10;99.90
49765;DHT22;35657;51.204;-4.130;2022-11-23T04:26:45;10.00;99.90
49765;DHT22;35657;51.204;-4.130;2022-11-23T04:29:11;10.00;99.90
49765;DHT22;35657;51.204;-4.130;2022-11-23T04:31:37;10.00;99.90
49765;DHT22;35657;51.204;-4.130;2022-11-23T04:34:03;10.00;99.90
49765;DHT22;35657;51.204;-4.130;2022-11-23T04:36:29;10.00;99.90
49765;DHT22;35657;51.204;-4.130;2022-11-23T04:38:55;10.00;99.90
49765;DHT22;35657;51.204;-4.130;2022-11-23T04:41:21;10.10;99.90
49765;DHT22;35657;51.204;-4.130;2022-11-23T04:43:48;10.10;99.90
49765;DHT22;35657;51.204;-4.130;2022-11-23T04:46:14;10.10;99.90
49765;DHT22;35657;51.204;-4.130;2022-11-23T04:48:40;10.10;99.90
49765;DHT22;35657;51.204;-4.130;2022-11-23T04:51:06;10.10;99.90
49765;DHT22;35657;51.204;-4.130;2022-11-23T04:53:32;10.20;99.90
49765;DHT22;35657;51.204;-4.130;2022-11-23T04:55:58;10.20;99.90
49765;DHT22;35657;51.204;-4.130;2022-11-23T04:58:23;10.30;99.90
49765;DHT22;35657;51.204;-4.130;2022-11-23T05:00:49;10.30;99.90
49765;DHT22;35657;51.204;-4.130;2022-11-23T05:03:15;10.30;99.90
49765;DHT22;35657;51.204;-4.130;2022-11-23T05:05:41;10.30;99.90
49765;DHT22;35657;51.204;-4.130;2022-11-23T05:08:07;10.30;99.90
49765;DHT22;35657;51.204;-4.130;2022-11-23T05:10:34;10.30;99.90
49765;DHT22;35657;51.204;-4.130;2022-11-23T05:13:00;10.30;99.90
49765;DHT22;35657;51.204;-4.130;2022-11-23T05:15:26;10.30;99.90
49765;DHT22;35657;51.204;-4.130;2022-11-23T05:18:00;10.40;99.90
49765;DHT22;35657;51.204;-4.130;2022-11-23T05:20:26;10.40;99.90
49765;DHT22;35657;51.204;-4.130;2022-11-23T05:22:52;10.40;99.90
49765;DHT22;35657;51.204;-4.130;2022-11-23T05:25:17;10.50;99.90
49765;DHT22;35657;51.204;-4.130;2022-11-23T05:27:43;10.50;99.90
49765;DHT22;35657;51.204;-4.130;2022-11-23T05:30:09;10.60;99.90
49765;DHT22;35657;51.204;-4.130;2022-11-23T05:32:35;10.50;99.90
49765;DHT22;35657;51.204;-4.130;2022-11-23T05:35:01;10.50;99.90
49765;DHT22;35657;51.204;-4.130;2022-11-23T05:37:27;10.50;99.90
49765;DHT22;35657;51.204;-4.130;2022-11-23T05:39:52;10.50;99.90
49765;DHT22;35657;51.204;-4.130;2022-11-23T05:42:18;10.60;99.90
49765;DHT22;35657;51.204;-4.130;2022-11-23T05:44:44;10.60;99.90
49765;DHT22;35657;51.204;-4.130;2022-11-23T05:47:09;10.60;99.90
49765;DHT22;35657;51.204;-4.130;2022-11-23T05:49:35;10.60;99.90
49765;DHT22;35657;51.204;-4.130;2022-11-23T05:52:01;10.50;99.90
49765;DHT22;35657;51.204;-4.130;2022-11-23T05:54:26;10.50;99.90
49765;DHT22;35657;51.204;-4.130;2022-11-23T05:56:52;10.50;99.90
49765;DHT22;35657;51.204;-4.130;2022-11-23T05:59:18;10.50;99.90
49765;DHT22;35657;51.204;-4.130;2022-11-23T06:01:44;10.50;99.90
49765;DHT22;35657;51.204;-4.130;2022-11-23T06:04:09;10.40;99.90
49765;DHT22;35657;51.204;-4.130;2022-11-23T06:06:35;10.40;99.90
49765;DHT22;35657;51.204;-4.130;2022-11-23T06:09:01;10.40;99.90
49765;DHT22;35657;51.204;-4.130;2022-11-23T06:11:26;10.40;99.90
49765;DHT22;35657;51.204;-4.130;2022-11-23T06:13:52;10.40;99.90
49765;DHT22;35657;51.204;-4.130;2022-11-23T06:16:18;10.30;99.90
49765;DHT22;35657;51.204;-4.130;2022-11-23T06:18:44;10.30;99.90
49765;DHT22;35657;51.204;-4.130;2022-11-23T06:21:09;10.30;99.90
49765;DHT22;35657;51.204;-4.130;2022-11-23T06:23:35;10.30;99.90
49765;DHT22;35657;51.204;-4.130;2022-11-23T06:26:01;10.40;99.90
49765;DHT22;35657;51.204;-4.130;2022-11-23T06:28:27;10.40;99.90
49765;DHT22;35657;51.204;-4.130;2022-11-23T06:30:54;10.30;99.90
49765;DHT22;35657;51.204;-4.130;2022-11-23T06:33:20;10.30;99.90
49765;DHT22;35657;51.204;-4.130;2022-11-23T06:35:53;10.30;99.90
49765;DHT22;35657;51.204;-4.130;2022-11-23T06:38:19;10.20;99.90
49765;DHT22;35657;51.204;-4.130;2022-11-23T06:40:45;10.20;99.90
49765;DHT22;35657;51.204;-4.130;2022-11-23T06:43:11;10.20;99.90
49765;DHT22;35657;51.204;-4.130;2022-11-23T06:45:36;10.20;99.90
49765;DHT22;35657;51.204;-4.130;2022-11-23T06:48:02;10.20;99.90
49765;DHT22;35657;51.204;-4.130;2022-11-23T06:50:28;10.20;99.90
49765;DHT22;35657;51.204;-4.130;2022-11-23T06:52:55;10.20;99.90
49765;DHT22;35657;51.204;-4.130;2022-11-23T06:55:22;10.20;99.90
49765;DHT22;35657;51.204;-4.130;2022-11-23T06:57:48;10.20;99.90
49765;DHT22;35657;51.204;-4.130;2022-11-23T07:00:14;10.20;99.90
49765;DHT22;35657;51.204;-4.130;2022-11-23T07:02:40;10.20;99.90
49765;DHT22;35657;51.204;-4.130;2022-11-23T07:05:06;10.10;99.90
49765;DHT22;35657;51.204;-4.130;2022-11-23T07:07:31;10.10;99.90
49765;DHT22;35657;51.204;-4.130;2022-11-23T07:09:57;10.10;99.90
49765;DHT22;35657;51.204;-4.130;2022-11-23T07:12:23;10.10;99.90
49765;DHT22;35657;51.204;-4.130;2022-11-23T07:14:49;10.10;99.90
49765;DHT22;35657;51.204;-4.130;2022-11-23T07:17:14;10.10;99.90
49765;DHT22;35657;51.204;-4.130;2022-11-23T07:19:40;10.10;99.90
49765;DHT22;35657;51.204;-4.130;2022-11-23T07:22:06;10.10;99.90
49765;DHT22;35657;51.204;-4.130;2022-11-23T07:24:32;10.10;99.90
49765;DHT22;35657;51.204;-4.130;2022-11-23T07:26:57;10.10;99.90
49765;DHT22;35657;51.204;-4.130;2022-11-23T07:29:23;10.10;99.90
49765;DHT22;35657;51.204;-4.130;2022-11-23T07:31:49;10.10;99.90
49765;DHT22;35657;51.204;-4.130;2022-11-23T07:34:15;10.10;99.90
49765;DHT22;35657;51.204;-4.130;2022-11-23T07:36:40;10.10;99.90
49765;DHT22;35657;51.204;-4.130;2022-11-23T07:39:06;10.10;99.90
49765;DHT22;35657;51.204;-4.130;2022-11-23T07:41:32;10.10;99.90
49765;DHT22;35657;51.204;-4.130;2022-11-23T07:43:58;10.10;99.90
49765;DHT22;35657;51.204;-4.130;2022-11-23T07:46:24;10.00;99.90
49765;DHT22;35657;51.204;-4.130;2022-11-23T07:48:49;10.00;99.90
49765;DHT22;35657;51.204;-4.130;2022-11-23T07:51:15;10.00;99.90
49765;DHT22;35657;51.204;-4.130;2022-11-23T07:53:43;10.10;99.90
49765;DHT22;35657;51.204;-4.130;2022-11-23T07:56:09;10.10;99.90
49765;DHT22;35657;51.204;-4.130;2022-11-23T07:58:35;10.10;99.90
49765;DHT22;35657;51.204;-4.130;2022-11-23T08:01:01;10.10;99.90
49765;DHT22;35657;51.204;-4.130;2022-11-23T08:03:26;10.10;99.90
49765;DHT22;35657;51.204;-4.130;2022-11-23T08:05:52;10.00;99.90
49765;DHT22;35657;51.204;-4.130;2022-11-23T08:08:18;10.00;99.90
49765;DHT22;35657;51.204;-4.130;2022-11-23T08:10:44;10.00;99.90
49765;DHT22;35657;51.204;-4.130;2022-11-23T08:13:10;10.00;99.90
49765;DHT22;35657;51.204;-4.130;2022-11-23T08:15:35;10.00;99.90
49765;DHT22;35657;51.204;-4.130;2022-11-23T08:18:03;9.90;99.90
49765;DHT22;35657;51.204;-4.130;2022-11-23T08:20:29;9.90;99.90
49765;DHT22;35657;51.204;-4.130;2022-11-23T08:22:56;9.90;99.90
49765;DHT22;35657;51.204;-4.130;2022-11-23T08:25:24;9.90;99.90
49765;DHT22;35657;51.204;-4.130;2022-11-23T08:28:01;9.90;99.90
49765;DHT22;35657;51.204;-4.130;2022-11-23T08:30:28;9.90;99.90
49765;DHT22;35657;51.204;-4.130;2022-11-23T08:32:54;9.90;99.90
49765;DHT22;35657;51.204;-4.130;2022-11-23T08:35:21;9.90;99.90
49765;DHT22;35657;51.204;-4.130;2022-11-23T08:37:47;9.90;99.90
49765;DHT22;35657;51.204;-4.130;2022-11-23T08:40:13;9.90;99.90
49765;DHT22;35657;51.204;-4.130;2022-11-23T08:42:39;9.90;99.90
49765;DHT22;35657;51.204;-4.130;2022-11-23T08:45:05;9.90;99.90
49765;DHT22;35657;51.204;-4.130;2022-11-23T08:47:32;9.90;99.90
49765;DHT22;35657;51.204;-4.130;2022-11-23T08:49:58;9.90;99.90
49765;DHT22;35657;51.204;-4.130;2022-11-23T08:52:24;9.80;99.90
49765;DHT22;35657;51.204;-4.130;2022-11-23T08:54:50;9.80;99.90
49765;DHT22;35657;51.204;-4.130;2022-11-23T08:57:16;9.80;99.90
49765;DHT22;35657;51.204;-4.130;2022-11-23T08:59:43;9.80;99.90
49765;DHT22;35657;51.204;-4.130;2022-11-23T09:02:11;9.90;99.90
49765;DHT22;35657;51.204;-4.130;2022-11-23T09:04:39;9.90;99.90
49765;DHT22;35657;51.204;-4.130;2022-11-23T09:07:05;9.90;99.90
49765;DHT22;35657;51.204;-4.130;2022-11-23T09:09:31;9.90;99.90
49765;DHT22;35657;51.204;-4.130;2022-11-23T09:11:56;9.90;99.90
49765;DHT22;35657;51.204;-4.130;2022-11-23T09:14:22;10.00;99.90
49765;DHT22;35657;51.204;-4.130;2022-11-23T09:16:48;9.90;99.90
49765;DHT22;35657;51.204;-4.130;2022-11-23T09:19:14;9.90;99.90
49765;DHT22;35657;51.204;-4.130;2022-11-23T09:21:40;9.90;99.90
49765;DHT22;35657;51.204;-4.130;2022-11-23T09:24:10;10.00;99.90
49765;DHT22;35657;51.204;-4.130;2022-11-23T09:26:37;10.10;99.90
49765;DHT22;35657;51.204;-4.130;2022-11-23T09:29:04;10.20;99.90
49765;DHT22;35657;51.204;-4.130;2022-11-23T09:31:30;10.10;99.90
49765;DHT22;35657;51.204;-4.130;2022-11-23T09:33:56;10.10;99.90
49765;DHT22;35657;51.204;-4.130;2022-11-23T09:36:21;10.10;99.90
49765;DHT22;35657;51.204;-4.130;2022-11-23T09:38:51;10.00;99.90
49765;DHT22;35657;51.204;-4.130;2022-11-23T09:41:46;10.00;99.90
49765;DHT22;35657;51.204;-4.130;2022-11-23T09:52:30;10.00;99.90
49765;DHT22;35657;51.204;-4.130;2022-11-23T09:54:59;10.00;99.90
49765;DHT22;35657;51.204;-4.130;2022-11-23T09:57:29;10.00;99.90
49765;DHT22;35657;51.204;-4.130;2022-11-23T10:02:28;10.10;99.90
49765;DHT22;35657;51.204;-4.130;2022-11-23T10:04:58;10.10;99.90
49765;DHT22;35657;51.204;-4.130;2022-11-23T10:07:59;10.20;99.90
49765;DHT22;35657;51.204;-4.130;2022-11-23T10:16:21;10.40;99.90
49765;DHT22;35657;51.204;-4.130;2022-11-23T10:22:01;10.40;99.90
49765;DHT22;35657;51.204;-4.130;2022-11-23T10:24:41;10.40;99.90
49765;DHT22;35657;51.204;-4.130;2022-11-23T10:27:15;10.40;99.90
49765;DHT22;35657;51.204;-4.130;2022-11-23T10:29:42;10.50;99.90
49765;DHT22;35657;51.204;-4.130;2022-11-23T10:32:36;10.50;99.90
49765;DHT22;35657;51.204;-4.130;2022-11-23T10:35:28;10.60;99.90
49765;DHT22;35657;51.204;-4.130;2022-11-23T10:38:13;10.60;99.90
49765;DHT22;35657;51.204;-4.130;2022-11-23T10:48:54;10.70;99.90
49765;DHT22;35657;51.204;-4.130;2022-11-23T10:51:28;10.80;99.90
49765;DHT22;35657;51.204;-4.130;2022-11-23T10:54:03;10.80;99.90
49765;DHT22;35657;51.204;-4.130;2022-11-23T10:56:29;10.90;99.90
49765;DHT22;35657;51.204;-4.130;2022-11-23T10:58:56;10.90;99.90
49765;DHT22;35657;51.204;-4.130;2022-11-23T11:01:24;10.90;99.90
49765;DHT22;35657;51.204;-4.130;2022-11-23T11:03:51;10.90;99.90
49765;DHT22;35657;51.204;-4.130;2022-11-23T11:06:29;10.90;99.90
49765;DHT22;35657;51.204;-4.130;2022-11-23T11:08:57;10.90;99.90
49765;DHT22;35657;51.204;-4.130;2022-11-23T11:11:35;10.90;99.90
49765;DHT22;35657;51.204;-4.130;2022-11-23T11:14:03;10.90;99.90
49765;DHT22;35657;51.204;-4.130;2022-11-23T11:16:32;10.90;99.90
49765;DHT22;35657;51.204;-4.130;2022-11-23T11:18:59;10.90;99.90
49765;DHT22;35657;51.204;-4.130;2022-11-23T11:21:44;10.90;99.90
49765;DHT22;35657;51.204;-4.130;2022-11-23T11:24:30;10.80;99.90
49765;DHT22;35657;51.204;-4.130;2022-11-23T11:27:02;10.80;99.90
49765;DHT22;35657;51.204;-4.130;2022-11-23T11:32:01;10.80;99.90
49765;DHT22;35657;51.204;-4.130;2022-11-23T11:37:38;11.00;99.90
49765;DHT22;35657;51.204;-4.130;2022-11-23T11:40:11;11.10;99.90
49765;DHT22;35657;51.204;-4.130;2022-11-23T11:43:00;11.30;99.90
49765;DHT22;35657;51.204;-4.130;2022-11-23T11:45:31;11.40;99.90
49765;DHT22;35657;51.204;-4.130;2022-11-23T11:50:57;11.40;99.90
49765;DHT22;35657;51.204;-4.130;2022-11-23T11:53:42;11.30;99.90
49765;DHT22;35657;51.204;-4.130;2022-11-23T11:56:30;11.30;99.90
49765;DHT22;35657;51.204;-4.130;2022-11-23T12:01:43;11.40;99.90
49765;DHT22;35657;51.204;-4.130;2022-11-23T12:07:05;11.40;99.90
49765;DHT22;35657;51.204;-4.130;2022-11-23T12:09:38;11.40;99.90
49765;DHT22;35657;51.204;-4.130;2022-11-23T12:12:12;11.40;99.90
49765;DHT22;35657;51.204;-4.130;2022-11-23T12:14:39;11.50;99.90
49765;DHT22;35657;51.204;-4.130;2022-11-23T12:19:56;11.50;99.90
49765;DHT22;35657;51.204;-4.130;2022-11-23T12:25:23;11.70;99.90
49765;DHT22;35657;51.204;-4.130;2022-11-23T12:39:11;11.80;99.90
49765;DHT22;35657;51.204;-4.130;2022-11-23T12:42:00;11.80;99.90
49765;DHT22;35657;51.204;-4.130;2022-11-23T12:49:53;11.80;99.90
49765;DHT22;35657;51.204;-4.130;2022-11-23T12:52:47;11.80;99.90
49765;DHT22;35657;51.204;-4.130;2022-11-23T12:55:23;11.80;99.90
49765;DHT22;35657;51.204;-4.130;2022-11-23T13:00:33;11.70;99.90
49765;DHT22;35657;51.204;-4.130;2022-11-23T13:22:10;11.70;99.90
49765;DHT22;35657;51.204;-4.130;2022-11-23T13:24:39;11.70;99.90
49765;DHT22;35657;51.204;-4.130;2022-11-23T13:40:26;11.80;99.90
49765;DHT22;35657;51.204;-4.130;2022-11-23T13:42:55;11.80;99.90
49765;DHT22;35657;51.204;-4.130;2022-11-23T13:45:30;11.80;99.90
49765;DHT22;35657;51.204;-4.130;2022-11-23T13:50:55;11.90;99.90
49765;DHT22;35657;51.204;-4.130;2022-11-23T13:53:39;12.00;99.90
49765;DHT22;35657;51.204;-4.130;2022-11-23T14:04:42;11.90;99.90
49765;DHT22;35657;51.204;-4.130;2022-11-23T14:07:51;11.90;99.90
49765;DHT22;35657;51.204;-4.130;2022-11-23T14:15:16;11.80;99.90
49765;DHT22;35657;51.204;-4.130;2022-11-23T14:23:37;11.90;99.90
49765;DHT22;35657;51.204;-4.130;2022-11-23T14:42:56;11.80;99.90
49765;DHT22;35657;51.204;-4.130;2022-11-23T14:45:26;11.70;99.90
49765;DHT22;35657;51.204;-4.130;2022-11-23T14:47:52;11.70;99.90
49765;DHT22;35657;51.204;-4.130;2022-11-23T14:50:28;11.60;99.90
49765;DHT22;35657;51.204;-4.130;2022-11-23T14:52:56;11.60;99.90
49765;DHT22;35657;51.204;-4.130;2022-11-23T14:55:27;11.60;99.90
49765;DHT22;35657;51.204;-4.130;2022-11-23T14:58:00;11.50;99.90
49765;DHT22;35657;51.204;-4.130;2022-11-23T15:00:38;11.50;99.90
49765;DHT22;35657;51.204;-4.130;2022-11-23T15:03:11;11.40;99.90
49765;DHT22;35657;51.204;-4.130;2022-11-23T15:05:43;11.30;99.90
49765;DHT22;35657;51.204;-4.130;2022-11-23T15:08:12;11.30;99.90
49765;DHT22;35657;51.204;-4.130;2022-11-23T15:11:08;11.30;99.90
49765;DHT22;35657;51.204;-4.130;2022-11-23T15:13:54;11.30;99.90
49765;DHT22;35657;51.204;-4.130;2022-11-23T15:16:26;11.30;99.90
49765;DHT22;35657;51.204;-4.130;2022-11-23T15:18:52;11.30;99.90
49765;DHT22;35657;51.204;-4.130;2022-11-23T15:21:23;11.30;99.90
49765;DHT22;35657;51.204;-4.130;2022-11-23T15:23:51;11.30;99.90
49765;DHT22;35657;51.204;-4.130;2022-11-23T15:26:20;11.30;99.90
49765;DHT22;35657;51.204;-4.130;2022-11-23T15:28:46;11.20;99.90
49765;DHT22;35657;51.204;-4.130;2022-11-23T15:31:43;11.20;99.90
49765;DHT22;35657;51.204;-4.130;2022-11-23T15:34:12;11.20;99.90
49765;DHT22;35657;51.204;-4.130;2022-11-23T15:36:42;11.10;99.90
49765;DHT22;35657;51.204;-4.130;2022-11-23T15:39:19;11.10;99.90
49765;DHT22;35657;51.204;-4.130;2022-11-23T15:41:46;11.10;99.90
49765;DHT22;35657;51.204;-4.130;2022-11-23T15:44:21;11.10;99.90
49765;DHT22;35657;51.204;-4.130;2022-11-23T15:46:58;11.10;99.90
49765;DHT22;35657;51.204;-4.130;2022-11-23T15:49:24;11.10;99.90
49765;DHT22;35657;51.204;-4.130;2022-11-23T15:51:50;11.10;99.90
49765;DHT22;35657;51.204;-4.130;2022-11-23T15:54:23;11.10;99.90
49765;DHT22;35657;51.204;-4.130;2022-11-23T15:56:53;11.00;99.90
49765;DHT22;35657;51.204;-4.130;2022-11-23T16:01:54;11.10;99.90
49765;DHT22;35657;51.204;-4.130;2022-11-23T16:04:36;11.10;99.90
49765;DHT22;35657;51.204;-4.130;2022-11-23T16:07:23;11.10;99.90
49765;DHT22;35657;51.204;-4.130;2022-11-23T16:10:18;11.10;99.90
49765;DHT22;35657;51.204;-4.130;2022-11-23T16:12:50;11.00;99.90
49765;DHT22;35657;51.204;-4.130;2022-11-23T16:20:54;11.00;99.90
49765;DHT22;35657;51.204;-4.130;2022-11-23T16:23:40;11.00;99.90
49765;DHT22;35657;51.204;-4.130;2022-11-23T16:26:09;11.00;99.90
49765;DHT22;35657;51.204;-4.130;2022-11-23T16:28:47;11.00;99.90
49765;DHT22;35657;51.204;-4.130;2022-11-23T16:31:26;10.90;99.90
49765;DHT22;35657;51.204;-4.130;2022-11-23T16:33:54;10.90;99.90
49765;DHT22;35657;51.204;-4.130;2022-11-23T16:36:20;10.90;99.90
49765;DHT22;35657;51.204;-4.130;2022-11-23T16:38:45;10.90;99.90
49765;DHT22;35657;51.204;-4.130;2022-11-23T16:41:11;10.90;99.90
49765;DHT22;35657;51.204;-4.130;2022-11-23T16:43:37;10.90;99.90
49765;DHT22;35657;51.204;-4.130;2022-11-23T16:46:02;10.90;99.90
49765;DHT22;35657;51.204;-4.130;2022-11-23T16:51:02;10.90;99.90
49765;DHT22;35657;51.204;-4.130;2022-11-23T16:53:28;10.90;99.90
49765;DHT22;35657;51.204;-4.130;2022-11-23T16:55:56;10.90;99.90
49765;DHT22;35657;51.204;-4.130;2022-11-23T16:58:23;10.90;99.90
49765;DHT22;35657;51.204;-4.130;2022-11-23T17:00:49;10.90;99.90
49765;DHT22;35657;51.204;-4.130;2022-11-23T17:03:16;10.90;99.90
49765;DHT22;35657;51.204;-4.130;2022-11-23T17:05:43;10.90;99.90
49765;DHT22;35657;51.204;-4.130;2022-11-23T17:08:08;10.90;99.90
49765;DHT22;35657;51.204;-4.130;2022-11-23T17:10:39;10.90;99.90
49765;DHT22;35657;51.204;-4.130;2022-11-23T17:13:18;10.90;99.90
49765;DHT22;35657;51.204;-4.130;2022-11-23T17:15:45;10.90;99.90
49765;DHT22;35657;51.204;-4.130;2022-11-23T17:18:13;10.90;99.90
49765;DHT22;35657;51.204;-4.130;2022-11-23T17:20:39;10.90;99.90
49765;DHT22;35657;51.204;-4.130;2022-11-23T17:23:05;10.90;99.90
49765;DHT22;35657;51.204;-4.130;2022-11-23T17:25:32;10.90;99.90
49765;DHT22;35657;51.204;-4.130;2022-11-23T17:27:59;10.90;99.90
49765;DHT22;35657;51.204;-4.130;2022-11-23T17:30:26;10.90;99.90
49765;DHT22;35657;51.204;-4.130;2022-11-23T17:32:53;10.90;99.90
49765;DHT22;35657;51.204;-4.130;2022-11-23T17:35:19;10.90;99.90
49765;DHT22;35657;51.204;-4.130;2022-11-23T17:37:45;10.90;99.90
49765;DHT22;35657;51.204;-4.130;2022-11-23T17:40:15;10.90;99.90
49765;DHT22;35657;51.204;-4.130;2022-11-23T17:42:42;10.80;99.90
49765;DHT22;35657;51.204;-4.130;2022-11-23T17:45:08;10.80;99.90
49765;DHT22;35657;51.204;-4.130;2022-11-23T17:47:34;10.80;99.90
49765;DHT22;35657;51.204;-4.130;2022-11-23T17:50:00;10.80;99.90
49765;DHT22;35657;51.204;-4.130;2022-11-23T17:52:28;10.80;99.90
49765;DHT22;35657;51.204;-4.130;2022-11-23T17:54:53;10.80;99.90
49765;DHT22;35657;51.204;-4.130;2022-11-23T17:57:24;10.80;99.90
49765;DHT22;35657;51.204;-4.130;2022-11-23T17:59:51;10.80;99.90
49765;DHT22;35657;51.204;-4.130;2022-11-23T18:02:17;10.80;99.90
49765;DHT22;35657;51.204;-4.130;2022-11-23T18:04:44;10.80;99.90
49765;DHT22;35657;51.204;-4.130;2022-11-23T18:07:14;10.90;99.90